sensor_id;sensor_type;location;lat;lon;timestamp;temperature;humidity
1011;DHT22;494;48.744;10.106;2022-08-03T00:00:34;20.20;50.50
1011;DHT22;494;48.744;10.106;2022-08-03T00:03:03;20.20;50.50
1011;DHT22;494;48.744;10.106;2022-08-03T00:05:31;20.20;50.50
1011;DHT22;494;48.744;10.106;2022-08-03T00:08:00;20.10;50.70
1011;DHT22;494;48.744;10.106;2022-08-03T00:10:31;20.10;50.80
1011;DHT22;494;48.744;10.106;2022-08-03T00:13:00;20.00;50.80
1011;DHT22;494;48.744;10.106;2022-08-03T00:15:28;20.00;51.10
1011;DHT22;494;48.744;10.106;2022-08-03T00:17:57;20.00;51.10
1011;DHT22;494;48.744;10.106;2022-08-03T00:20:25;20.00;51.10
1011;DHT22;494;48.744;10.106;2022-08-03T00:22:54;20.00;51.20
1011;DHT22;494;48.744;10.106;2022-08-03T00:25:23;19.90;51.30
1011;DHT22;494;48.744;10.106;2022-08-03T00:27:52;19.90;51.60
1011;DHT22;494;48.744;10.106;2022-08-03T00:30:21;19.90;51.60
1011;DHT22;494;48.744;10.106;2022-08-03T00:32:57;19.90;51.70
1011;DHT22;494;48.744;10.106;2022-08-03T00:35:26;19.90;51.70
1011;DHT22;494;48.744;10.106;2022-08-03T00:38:08;19.90;51.70
1011;DHT22;494;48.744;10.106;2022-08-03T00:40:36;19.90;52.40
1011;DHT22;494;48.744;10.106;2022-08-03T00:43:07;19.90;51.90
1011;DHT22;494;48.744;10.106;2022-08-03T00:45:39;19.90;51.90
1011;DHT22;494;48.744;10.106;2022-08-03T00:48:10;19.80;51.70
1011;DHT22;494;48.744;10.106;2022-08-03T00:50:59;19.80;51.80
1011;DHT22;494;48.744;10.106;2022-08-03T00:53:27;19.60;52.30
1011;DHT22;494;48.744;10.106;2022-08-03T00:55:56;19.60;52.70
1011;DHT22;494;48.744;10.106;2022-08-03T00:58:26;19.60;52.90
1011;DHT22;494;48.744;10.106;2022-08-03T01:00:55;19.60;53.00
1011;DHT22;494;48.744;10.106;2022-08-03T01:03:24;19.50;53.00
1011;DHT22;494;48.744;10.106;2022-08-03T01:05:56;19.50;53.10
1011;DHT22;494;48.744;10.106;2022-08-03T01:08:35;19.50;53.20
1011;DHT22;494;48.744;10.106;2022-08-03T01:11:16;19.50;53.30
1011;DHT22;494;48.744;10.106;2022-08-03T01:13:56;19.50;53.40
1011;DHT22;494;48.744;10.106;2022-08-03T01:16:53;19.50;54.00
1011;DHT22;494;48.744;10.106;2022-08-03T01:19:39;19.40;53.30
1011;DHT22;494;48.744;10.106;2022-08-03T01:22:43;19.50;53.30
1011;DHT22;494;48.744;10.106;2022-08-03T01:25:32;19.50;53.10
1011;DHT22;494;48.744;10.106;2022-08-03T01:28:25;19.50;52.90
1011;DHT22;494;48.744;10.106;2022-08-03T01:31:09;19.50;52.90
1011;DHT22;494;48.744;10.106;2022-08-03T01:33:43;19.50;52.80
1011;DHT22;494;48.744;10.106;2022-08-03T01:36:21;19.50;52.70
1011;DHT22;494;48.744;10.106;2022-08-03T01:39:02;19.50;52.80
1011;DHT22;494;48.744;10.106;2022-08-03T01:41:39;19.50;52.90
1011;DHT22;494;48.744;10.106;2022-08-03T01:44:12;19.40;52.90
1011;DHT22;494;48.744;10.106;2022-08-03T01:46:59;19.40;52.80
1011;DHT22;494;48.744;10.106;2022-08-03T01:49:30;19.40;53.20
1011;DHT22;494;48.744;10.106;2022-08-03T01:52:03;19.20;53.50
1011;DHT22;494;48.744;10.106;2022-08-03T01:54:36;19.20;54.00
1011;DHT22;494;48.744;10.106;2022-08-03T01:57:12;19.20;54.20
1011;DHT22;494;48.744;10.106;2022-08-03T01:59:43;19.20;54.20
1011;DHT22;494;48.744;10.106;2022-08-03T02:02:16;19.20;54.20
1011;DHT22;494;48.744;10.106;2022-08-03T02:05:01;19.20;54.00
1011;DHT22;494;48.744;10.106;2022-08-03T02:07:37;19.30;54.00
1011;DHT22;494;48.744;10.106;2022-08-03T02:10:09;19.30;53.90
1011;DHT22;494;48.744;10.106;2022-08-03T02:12:42;19.30;53.50
1011;DHT22;494;48.744;10.106;2022-08-03T02:15:14;19.10;53.90
1011;DHT22;494;48.744;10.106;2022-08-03T02:17:46;19.00;54.80
1011;DHT22;494;48.744;10.106;2022-08-03T02:20:15;19.00;54.40
1011;DHT22;494;48.744;10.106;2022-08-03T02:22:45;18.90;54.70
1011;DHT22;494;48.744;10.106;2022-08-03T02:25:15;18.90;54.80
1011;DHT22;494;48.744;10.106;2022-08-03T02:27:50;19.00;54.70
1011;DHT22;494;48.744;10.106;2022-08-03T02:30:23;19.00;54.40
1011;DHT22;494;48.744;10.106;2022-08-03T02:32:59;19.00;54.30
1011;DHT22;494;48.744;10.106;2022-08-03T02:35:29;19.00;54.30
1011;DHT22;494;48.744;10.106;2022-08-03T02:38:02;19.10;54.10
1011;DHT22;494;48.744;10.106;2022-08-03T02:40:32;19.00;54.10
1011;DHT22;494;48.744;10.106;2022-08-03T02:43:04;19.00;54.10
1011;DHT22;494;48.744;10.106;2022-08-03T02:45:41;18.90;54.30
1011;DHT22;494;48.744;10.106;2022-08-03T02:48:16;18.90;54.50
1011;DHT22;494;48.744;10.106;2022-08-03T02:50:46;19.00;54.50
1011;DHT22;494;48.744;10.106;2022-08-03T02:53:17;19.00;54.30
1011;DHT22;494;48.744;10.106;2022-08-03T02:55:48;19.00;54.20
1011;DHT22;494;48.744;10.106;2022-08-03T02:58:19;19.00;54.10
1011;DHT22;494;48.744;10.106;2022-08-03T03:00:51;19.00;53.90
1011;DHT22;494;48.744;10.106;2022-08-03T03:03:22;19.00;53.80
1011;DHT22;494;48.744;10.106;2022-08-03T03:05:55;19.00;53.50
1011;DHT22;494;48.744;10.106;2022-08-03T03:08:26;18.90;53.60
1011;DHT22;494;48.744;10.106;2022-08-03T03:10:57;18.90;53.80
1011;DHT22;494;48.744;10.106;2022-08-03T03:13:28;18.90;54.00
1011;DHT22;494;48.744;10.106;2022-08-03T03:16:00;18.90;54.00
1011;DHT22;494;48.744;10.106;2022-08-03T03:18:33;18.90;54.00
1011;DHT22;494;48.744;10.106;2022-08-03T03:21:04;18.90;54.10
1011;DHT22;494;48.744;10.106;2022-08-03T03:23:37;18.90;54.10
1011;DHT22;494;48.744;10.106;2022-08-03T03:26:07;18.90;54.00
1011;DHT22;494;48.744;10.106;2022-08-03T03:28:36;18.70;54.10
1011;DHT22;494;48.744;10.106;2022-08-03T03:31:05;18.70;54.50
1011;DHT22;494;48.744;10.106;2022-08-03T03:33:37;18.50;55.00
1011;DHT22;494;48.744;10.106;2022-08-03T03:36:06;18.50;55.20
1011;DHT22;494;48.744;10.106;2022-08-03T03:38:35;18.50;55.00
1011;DHT22;494;48.744;10.106;2022-08-03T03:41:04;18.50;55.10
1011;DHT22;494;48.744;10.106;2022-08-03T03:43:33;18.50;55.10
1011;DHT22;494;48.744;10.106;2022-08-03T03:46:02;18.60;55.00
1011;DHT22;494;48.744;10.106;2022-08-03T03:48:30;18.60;55.10
1011;DHT22;494;48.744;10.106;2022-08-03T03:51:01;18.70;55.00
1011;DHT22;494;48.744;10.106;2022-08-03T03:53:30;18.70;54.70
1011;DHT22;494;48.744;10.106;2022-08-03T03:55:59;18.70;54.40
1011;DHT22;494;48.744;10.106;2022-08-03T03:58:30;18.70;54.30
1011;DHT22;494;48.744;10.106;2022-08-03T04:01:00;18.70;54.30
1011;DHT22;494;48.744;10.106;2022-08-03T04:03:29;18.60;54.20
1011;DHT22;494;48.744;10.106;2022-08-03T04:05:58;18.60;54.10
1011;DHT22;494;48.744;10.106;2022-08-03T04:08:45;18.70;54.20
1011;DHT22;494;48.744;10.106;2022-08-03T04:11:37;18.70;54.10
1011;DHT22;494;48.744;10.106;2022-08-03T04:14:11;18.70;54.00
1011;DHT22;494;48.744;10.106;2022-08-03T04:16:46;18.70;54.10
1011;DHT22;494;48.744;10.106;2022-08-03T04:19:25;18.70;54.10
1011;DHT22;494;48.744;10.106;2022-08-03T04:21:59;18.70;53.90
1011;DHT22;494;48.744;10.106;2022-08-03T04:24:37;18.80;53.90
1011;DHT22;494;48.744;10.106;2022-08-03T04:27:13;18.80;53.90
1011;DHT22;494;48.744;10.106;2022-08-03T04:29:46;18.80;53.80
1011;DHT22;494;48.744;10.106;2022-08-03T04:32:18;18.80;53.60
1011;DHT22;494;48.744;10.106;2022-08-03T04:34:51;18.80;53.40
1011;DHT22;494;48.744;10.106;2022-08-03T04:37:25;18.80;53.40
1011;DHT22;494;48.744;10.106;2022-08-03T04:40:06;18.80;53.10
1011;DHT22;494;48.744;10.106;2022-08-03T04:42:38;18.80;53.00
1011;DHT22;494;48.744;10.106;2022-08-03T04:45:11;18.80;52.90
1011;DHT22;494;48.744;10.106;2022-08-03T04:47:42;18.80;52.80
1011;DHT22;494;48.744;10.106;2022-08-03T04:50:11;18.80;52.70
1011;DHT22;494;48.744;10.106;2022-08-03T04:52:47;18.90;52.70
1011;DHT22;494;48.744;10.106;2022-08-03T04:55:25;18.90;52.80
1011;DHT22;494;48.744;10.106;2022-08-03T04:57:54;19.00;52.70
1011;DHT22;494;48.744;10.106;2022-08-03T05:00:24;19.10;52.40
1011;DHT22;494;48.744;10.106;2022-08-03T05:02:53;19.10;52.10
1011;DHT22;494;48.744;10.106;2022-08-03T05:05:22;19.20;51.80
1011;DHT22;494;48.744;10.106;2022-08-03T05:07:51;19.20;51.70
1011;DHT22;494;48.744;10.106;2022-08-03T05:10:19;19.30;51.70
1011;DHT22;494;48.744;10.106;2022-08-03T05:12:49;19.30;51.40
1011;DHT22;494;48.744;10.106;2022-08-03T05:15:19;19.40;51.10
1011;DHT22;494;48.744;10.106;2022-08-03T05:17:48;19.40;50.80
1011;DHT22;494;48.744;10.106;2022-08-03T05:20:16;19.50;50.60
1011;DHT22;494;48.744;10.106;2022-08-03T05:22:45;19.50;50.30
1011;DHT22;494;48.744;10.106;2022-08-03T05:25:14;19.50;50.40
1011;DHT22;494;48.744;10.106;2022-08-03T05:27:46;19.50;50.50
1011;DHT22;494;48.744;10.106;2022-08-03T05:30:16;19.60;50.40
1011;DHT22;494;48.744;10.106;2022-08-03T05:33:00;19.70;50.30
1011;DHT22;494;48.744;10.106;2022-08-03T05:35:30;19.80;49.90
1011;DHT22;494;48.744;10.106;2022-08-03T05:38:20;19.90;50.20
1011;DHT22;494;48.744;10.106;2022-08-03T05:41:01;20.00;49.20
1011;DHT22;494;48.744;10.106;2022-08-03T05:43:50;20.10;49.00
1011;DHT22;494;48.744;10.106;2022-08-03T05:46:21;20.20;48.70
1011;DHT22;494;48.744;10.106;2022-08-03T05:48:50;20.30;48.50
1011;DHT22;494;48.744;10.106;2022-08-03T05:51:19;20.40;48.60
1011;DHT22;494;48.744;10.106;2022-08-03T05:53:47;20.50;47.90
1011;DHT22;494;48.744;10.106;2022-08-03T05:56:16;20.60;47.70
1011;DHT22;494;48.744;10.106;2022-08-03T05:58:48;20.70;47.30
1011;DHT22;494;48.744;10.106;2022-08-03T06:01:18;20.80;47.30
1011;DHT22;494;48.744;10.106;2022-08-03T06:03:50;21.00;47.00
1011;DHT22;494;48.744;10.106;2022-08-03T06:06:19;21.10;46.80
1011;DHT22;494;48.744;10.106;2022-08-03T06:08:49;21.20;46.60
1011;DHT22;494;48.744;10.106;2022-08-03T06:11:17;21.40;45.70
1011;DHT22;494;48.744;10.106;2022-08-03T06:13:46;21.60;45.60
1011;DHT22;494;48.744;10.106;2022-08-03T06:16:15;21.80;44.80
1011;DHT22;494;48.744;10.106;2022-08-03T06:18:43;22.00;44.40
1011;DHT22;494;48.744;10.106;2022-08-03T06:21:13;22.20;43.50
1011;DHT22;494;48.744;10.106;2022-08-03T06:23:44;22.40;43.10
1011;DHT22;494;48.744;10.106;2022-08-03T06:26:22;22.60;42.80
1011;DHT22;494;48.744;10.106;2022-08-03T06:28:51;22.90;41.90
1011;DHT22;494;48.744;10.106;2022-08-03T06:31:22;23.10;41.40
1011;DHT22;494;48.744;10.106;2022-08-03T06:34:01;23.20;40.00
1011;DHT22;494;48.744;10.106;2022-08-03T06:36:52;23.40;39.80
1011;DHT22;494;48.744;10.106;2022-08-03T06:39:28;23.60;38.80
1011;DHT22;494;48.744;10.106;2022-08-03T06:41:56;23.80;38.00
1011;DHT22;494;48.744;10.106;2022-08-03T06:44:25;23.90;38.00
1011;DHT22;494;48.744;10.106;2022-08-03T06:46:53;24.20;37.60
1011;DHT22;494;48.744;10.106;2022-08-03T06:49:22;24.40;36.70
1011;DHT22;494;48.744;10.106;2022-08-03T06:51:52;24.60;36.10
1011;DHT22;494;48.744;10.106;2022-08-03T06:54:33;24.90;35.80
1011;DHT22;494;48.744;10.106;2022-08-03T06:57:03;25.10;35.10
1011;DHT22;494;48.744;10.106;2022-08-03T06:59:34;25.30;34.20
1011;DHT22;494;48.744;10.106;2022-08-03T07:02:22;25.50;33.40
1011;DHT22;494;48.744;10.106;2022-08-03T07:04:54;25.70;33.00
1011;DHT22;494;48.744;10.106;2022-08-03T07:07:25;26.00;32.70
1011;DHT22;494;48.744;10.106;2022-08-03T07:09:53;26.20;32.60
1011;DHT22;494;48.744;10.106;2022-08-03T07:12:24;26.50;32.20
1011;DHT22;494;48.744;10.106;2022-08-03T07:14:54;26.70;29.30
1011;DHT22;494;48.744;10.106;2022-08-03T07:17:28;27.00;28.30
1011;DHT22;494;48.744;10.106;2022-08-03T07:19:59;27.30;26.80
1011;DHT22;494;48.744;10.106;2022-08-03T07:22:31;27.50;26.70
1011;DHT22;494;48.744;10.106;2022-08-03T07:24:59;27.80;25.90
1011;DHT22;494;48.744;10.106;2022-08-03T07:27:28;28.10;26.30
1011;DHT22;494;48.744;10.106;2022-08-03T07:29:57;28.30;25.40
1011;DHT22;494;48.744;10.106;2022-08-03T07:32:26;28.60;25.20
1011;DHT22;494;48.744;10.106;2022-08-03T07:34:57;28.90;23.70
1011;DHT22;494;48.744;10.106;2022-08-03T07:37:28;29.10;24.00
1011;DHT22;494;48.744;10.106;2022-08-03T07:39:59;29.30;22.90
1011;DHT22;494;48.744;10.106;2022-08-03T07:42:29;29.50;23.00
1011;DHT22;494;48.744;10.106;2022-08-03T07:44:58;29.50;21.70
1011;DHT22;494;48.744;10.106;2022-08-03T07:47:28;29.60;20.40
1011;DHT22;494;48.744;10.106;2022-08-03T07:50:03;29.70;20.00
1011;DHT22;494;48.744;10.106;2022-08-03T07:52:34;29.80;20.40
1011;DHT22;494;48.744;10.106;2022-08-03T07:55:18;30.00;19.40
1011;DHT22;494;48.744;10.106;2022-08-03T07:57:59;30.10;19.50
1011;DHT22;494;48.744;10.106;2022-08-03T08:00:28;30.30;19.60
1011;DHT22;494;48.744;10.106;2022-08-03T08:02:57;30.40;19.10
1011;DHT22;494;48.744;10.106;2022-08-03T08:05:26;30.50;17.00
1011;DHT22;494;48.744;10.106;2022-08-03T08:07:55;30.70;17.80
1011;DHT22;494;48.744;10.106;2022-08-03T08:10:25;30.90;17.40
1011;DHT22;494;48.744;10.106;2022-08-03T08:12:54;31.00;17.20
1011;DHT22;494;48.744;10.106;2022-08-03T08:15:23;31.10;17.70
1011;DHT22;494;48.744;10.106;2022-08-03T08:17:53;31.20;17.70
1011;DHT22;494;48.744;10.106;2022-08-03T08:20:25;31.50;17.60
1011;DHT22;494;48.744;10.106;2022-08-03T08:22:58;31.60;17.40
1011;DHT22;494;48.744;10.106;2022-08-03T08:25:30;31.80;16.50
1011;DHT22;494;48.744;10.106;2022-08-03T08:28:00;31.90;16.00
1011;DHT22;494;48.744;10.106;2022-08-03T08:30:50;32.10;15.90
1011;DHT22;494;48.744;10.106;2022-08-03T08:33:18;32.20;15.60
1011;DHT22;494;48.744;10.106;2022-08-03T08:35:51;32.30;14.40
1011;DHT22;494;48.744;10.106;2022-08-03T08:38:20;32.40;14.40
1011;DHT22;494;48.744;10.106;2022-08-03T08:40:53;32.40;14.80
1011;DHT22;494;48.744;10.106;2022-08-03T08:43:22;32.40;14.30
1011;DHT22;494;48.744;10.106;2022-08-03T08:45:51;32.60;14.60
1011;DHT22;494;48.744;10.106;2022-08-03T08:48:23;32.60;14.30
1011;DHT22;494;48.744;10.106;2022-08-03T08:50:55;32.80;13.60
1011;DHT22;494;48.744;10.106;2022-08-03T08:53:25;33.00;14.30
1011;DHT22;494;48.744;10.106;2022-08-03T08:55:58;32.80;14.80
1011;DHT22;494;48.744;10.106;2022-08-03T08:58:34;32.90;13.90
1011;DHT22;494;48.744;10.106;2022-08-03T09:01:04;33.00;13.20
1011;DHT22;494;48.744;10.106;2022-08-03T09:03:33;33.00;13.10
1011;DHT22;494;48.744;10.106;2022-08-03T09:06:02;33.30;14.00
1011;DHT22;494;48.744;10.106;2022-08-03T09:08:32;33.40;13.10
1011;DHT22;494;48.744;10.106;2022-08-03T09:11:02;33.50;12.70
1011;DHT22;494;48.744;10.106;2022-08-03T09:13:32;33.50;12.70
1011;DHT22;494;48.744;10.106;2022-08-03T09:16:11;33.60;11.80
1011;DHT22;494;48.744;10.106;2022-08-03T09:18:41;33.80;10.90
1011;DHT22;494;48.744;10.106;2022-08-03T09:21:16;33.80;11.60
1011;DHT22;494;48.744;10.106;2022-08-03T09:24:04;33.90;11.20
1011;DHT22;494;48.744;10.106;2022-08-03T09:26:50;34.00;11.60
1011;DHT22;494;48.744;10.106;2022-08-03T09:29:20;34.20;11.50
1011;DHT22;494;48.744;10.106;2022-08-03T09:31:59;34.20;11.40
1011;DHT22;494;48.744;10.106;2022-08-03T09:34:29;34.20;10.40
1011;DHT22;494;48.744;10.106;2022-08-03T09:36:58;34.40;10.20
1011;DHT22;494;48.744;10.106;2022-08-03T09:39:27;34.40;10.60
1011;DHT22;494;48.744;10.106;2022-08-03T09:42:11;34.60;10.90
1011;DHT22;494;48.744;10.106;2022-08-03T09:44:42;34.80;9.70
1011;DHT22;494;48.744;10.106;2022-08-03T09:47:14;34.90;10.40
1011;DHT22;494;48.744;10.106;2022-08-03T09:49:57;35.00;10.00
1011;DHT22;494;48.744;10.106;2022-08-03T09:52:32;35.00;9.70
1011;DHT22;494;48.744;10.106;2022-08-03T09:55:16;35.00;10.40
1011;DHT22;494;48.744;10.106;2022-08-03T09:58:08;35.20;10.20
1011;DHT22;494;48.744;10.106;2022-08-03T10:00:55;35.30;9.70
1011;DHT22;494;48.744;10.106;2022-08-03T10:03:27;35.40;9.50
1011;DHT22;494;48.744;10.106;2022-08-03T10:05:57;35.60;8.30
1011;DHT22;494;48.744;10.106;2022-08-03T10:08:27;35.60;8.90
1011;DHT22;494;48.744;10.106;2022-08-03T10:10:57;35.60;8.40
1011;DHT22;494;48.744;10.106;2022-08-03T10:13:28;35.60;8.10
1011;DHT22;494;48.744;10.106;2022-08-03T10:15:57;35.60;9.50
1011;DHT22;494;48.744;10.106;2022-08-03T10:18:45;35.60;8.90
1011;DHT22;494;48.744;10.106;2022-08-03T10:21:16;35.70;7.80
1011;DHT22;494;48.744;10.106;2022-08-03T10:23:47;35.80;8.90
1011;DHT22;494;48.744;10.106;2022-08-03T10:26:18;36.10;8.80
1011;DHT22;494;48.744;10.106;2022-08-03T10:28:55;36.20;7.70
1011;DHT22;494;48.744;10.106;2022-08-03T10:31:33;36.30;7.80
1011;DHT22;494;48.744;10.106;2022-08-03T10:34:23;36.50;7.80
1011;DHT22;494;48.744;10.106;2022-08-03T10:36:57;36.30;7.60
1011;DHT22;494;48.744;10.106;2022-08-03T10:39:28;36.10;8.30
1011;DHT22;494;48.744;10.106;2022-08-03T10:41:57;36.10;8.70
1011;DHT22;494;48.744;10.106;2022-08-03T10:44:32;36.30;8.20
1011;DHT22;494;48.744;10.106;2022-08-03T10:47:08;36.20;7.90
1011;DHT22;494;48.744;10.106;2022-08-03T10:49:38;36.20;8.40
1011;DHT22;494;48.744;10.106;2022-08-03T10:52:08;36.10;8.20
1011;DHT22;494;48.744;10.106;2022-08-03T10:54:57;36.40;7.60
1011;DHT22;494;48.744;10.106;2022-08-03T10:57:50;36.70;6.90
1011;DHT22;494;48.744;10.106;2022-08-03T11:00:27;36.90;7.80
1011;DHT22;494;48.744;10.106;2022-08-03T11:03:14;36.90;7.40
1011;DHT22;494;48.744;10.106;2022-08-03T11:05:45;36.90;7.20
1011;DHT22;494;48.744;10.106;2022-08-03T11:08:31;36.90;7.30
1011;DHT22;494;48.744;10.106;2022-08-03T11:13:59;36.90;7.00
1011;DHT22;494;48.744;10.106;2022-08-03T11:16:33;36.90;5.80
1011;DHT22;494;48.744;10.106;2022-08-03T11:19:05;36.90;7.30
1011;DHT22;494;48.744;10.106;2022-08-03T11:21:56;37.10;8.20
1011;DHT22;494;48.744;10.106;2022-08-03T11:24:56;37.20;7.80
1011;DHT22;494;48.744;10.106;2022-08-03T11:27:30;37.30;7.00
1011;DHT22;494;48.744;10.106;2022-08-03T11:30:03;37.40;6.90
1011;DHT22;494;48.744;10.106;2022-08-03T11:32:56;37.50;6.50
1011;DHT22;494;48.744;10.106;2022-08-03T11:35:28;37.50;7.20
1011;DHT22;494;48.744;10.106;2022-08-03T11:38:09;37.60;5.50
1011;DHT22;494;48.744;10.106;2022-08-03T11:40:41;37.70;6.00
1011;DHT22;494;48.744;10.106;2022-08-03T11:43:43;37.80;5.50
1011;DHT22;494;48.744;10.106;2022-08-03T11:46:13;37.80;5.60
1011;DHT22;494;48.744;10.106;2022-08-03T11:49:03;37.80;6.30
1011;DHT22;494;48.744;10.106;2022-08-03T11:51:37;38.00;6.50
1011;DHT22;494;48.744;10.106;2022-08-03T11:54:07;38.10;6.40
1011;DHT22;494;48.744;10.106;2022-08-03T11:56:44;38.20;6.00
1011;DHT22;494;48.744;10.106;2022-08-03T11:59:14;38.30;5.20
1011;DHT22;494;48.744;10.106;2022-08-03T12:01:48;38.30;5.50
1011;DHT22;494;48.744;10.106;2022-08-03T12:04:19;38.20;5.30
1011;DHT22;494;48.744;10.106;2022-08-03T12:06:58;38.00;6.50
1011;DHT22;494;48.744;10.106;2022-08-03T12:09:26;37.90;4.90
1011;DHT22;494;48.744;10.106;2022-08-03T12:11:55;38.00;6.00
1011;DHT22;494;48.744;10.106;2022-08-03T12:14:27;38.20;5.10
1011;DHT22;494;48.744;10.106;2022-08-03T12:17:16;38.50;4.80
1011;DHT22;494;48.744;10.106;2022-08-03T12:19:46;38.40;5.10
1011;DHT22;494;48.744;10.106;2022-08-03T12:22:15;38.40;5.10
1011;DHT22;494;48.744;10.106;2022-08-03T12:24:44;38.50;5.10
1011;DHT22;494;48.744;10.106;2022-08-03T12:27:22;38.60;4.80
1011;DHT22;494;48.744;10.106;2022-08-03T12:29:53;38.50;4.90
1011;DHT22;494;48.744;10.106;2022-08-03T12:32:25;38.60;5.30
1011;DHT22;494;48.744;10.106;2022-08-03T12:34:56;38.70;4.80
1011;DHT22;494;48.744;10.106;2022-08-03T12:37:28;38.70;5.40
1011;DHT22;494;48.744;10.106;2022-08-03T12:39:58;38.80;4.70
1011;DHT22;494;48.744;10.106;2022-08-03T12:42:37;38.90;4.70
1011;DHT22;494;48.744;10.106;2022-08-03T12:45:20;39.10;4.60
1011;DHT22;494;48.744;10.106;2022-08-03T12:47:54;39.30;3.90
1011;DHT22;494;48.744;10.106;2022-08-03T12:50:26;39.30;4.90
1011;DHT22;494;48.744;10.106;2022-08-03T12:52:58;39.40;4.30
1011;DHT22;494;48.744;10.106;2022-08-03T12:55:27;39.70;3.60
1011;DHT22;494;48.744;10.106;2022-08-03T12:58:30;39.60;4.10
1011;DHT22;494;48.744;10.106;2022-08-03T13:01:01;39.70;3.30
1011;DHT22;494;48.744;10.106;2022-08-03T13:03:40;39.80;4.10
1011;DHT22;494;48.744;10.106;2022-08-03T13:06:18;39.90;3.40
1011;DHT22;494;48.744;10.106;2022-08-03T13:08:48;39.80;3.10
1011;DHT22;494;48.744;10.106;2022-08-03T13:11:28;39.50;3.10
1011;DHT22;494;48.744;10.106;2022-08-03T13:14:16;39.50;3.20
1011;DHT22;494;48.744;10.106;2022-08-03T13:16:46;39.70;2.80
1011;DHT22;494;48.744;10.106;2022-08-03T13:19:15;39.90;3.10
1011;DHT22;494;48.744;10.106;2022-08-03T13:21:45;40.10;3.30
1011;DHT22;494;48.744;10.106;2022-08-03T13:24:31;40.20;2.90
1011;DHT22;494;48.744;10.106;2022-08-03T13:27:00;40.40;3.00
1011;DHT22;494;48.744;10.106;2022-08-03T13:29:51;40.60;4.10
1011;DHT22;494;48.744;10.106;2022-08-03T13:32:20;40.60;2.50
1011;DHT22;494;48.744;10.106;2022-08-03T13:34:50;40.70;2.70
1011;DHT22;494;48.744;10.106;2022-08-03T13:37:20;40.60;3.10
1011;DHT22;494;48.744;10.106;2022-08-03T13:39:49;40.90;3.10
1011;DHT22;494;48.744;10.106;2022-08-03T13:42:26;41.10;2.60
1011;DHT22;494;48.744;10.106;2022-08-03T13:44:56;41.30;1.80
1011;DHT22;494;48.744;10.106;2022-08-03T13:47:25;41.20;3.10
1011;DHT22;494;48.744;10.106;2022-08-03T13:49:55;41.20;2.70
1011;DHT22;494;48.744;10.106;2022-08-03T13:52:33;41.10;3.40
1011;DHT22;494;48.744;10.106;2022-08-03T13:55:04;41.20;3.10
1011;DHT22;494;48.744;10.106;2022-08-03T13:57:34;41.20;2.60
1011;DHT22;494;48.744;10.106;2022-08-03T14:00:22;41.40;2.40
1011;DHT22;494;48.744;10.106;2022-08-03T14:02:56;41.70;2.60
1011;DHT22;494;48.744;10.106;2022-08-03T14:05:40;41.70;2.40
1011;DHT22;494;48.744;10.106;2022-08-03T14:08:11;41.80;2.20
1011;DHT22;494;48.744;10.106;2022-08-03T14:10:41;41.80;1.60
1011;DHT22;494;48.744;10.106;2022-08-03T14:13:12;41.70;1.40
1011;DHT22;494;48.744;10.106;2022-08-03T14:15:44;41.50;1.90
1011;DHT22;494;48.744;10.106;2022-08-03T14:18:17;41.50;2.00
1011;DHT22;494;48.744;10.106;2022-08-03T14:21:00;41.70;1.10
1011;DHT22;494;48.744;10.106;2022-08-03T14:23:35;41.70;1.30
1011;DHT22;494;48.744;10.106;2022-08-03T14:26:04;41.80;1.00
1011;DHT22;494;48.744;10.106;2022-08-03T14:28:34;41.60;1.20
1011;DHT22;494;48.744;10.106;2022-08-03T14:31:03;41.70;1.40
1011;DHT22;494;48.744;10.106;2022-08-03T14:33:52;42.10;1.30
1011;DHT22;494;48.744;10.106;2022-08-03T14:36:20;42.60;1.00
1011;DHT22;494;48.744;10.106;2022-08-03T14:38:50;42.80;1.20
1011;DHT22;494;48.744;10.106;2022-08-03T14:41:19;42.70;1.20
1011;DHT22;494;48.744;10.106;2022-08-03T14:43:47;42.60;1.00
1011;DHT22;494;48.744;10.106;2022-08-03T14:46:28;42.70;1.10
1011;DHT22;494;48.744;10.106;2022-08-03T14:48:57;42.70;1.00
1011;DHT22;494;48.744;10.106;2022-08-03T14:51:46;42.90;1.00
1011;DHT22;494;48.744;10.106;2022-08-03T14:54:21;43.00;1.10
1011;DHT22;494;48.744;10.106;2022-08-03T14:56:50;43.00;1.10
1011;DHT22;494;48.744;10.106;2022-08-03T14:59:18;43.00;1.20
1011;DHT22;494;48.744;10.106;2022-08-03T15:01:47;43.10;1.00
1011;DHT22;494;48.744;10.106;2022-08-03T15:04:34;43.10;1.00
1011;DHT22;494;48.744;10.106;2022-08-03T15:07:03;43.20;1.00
1011;DHT22;494;48.744;10.106;2022-08-03T15:09:33;43.00;1.00
1011;DHT22;494;48.744;10.106;2022-08-03T15:12:02;43.00;1.00
1011;DHT22;494;48.744;10.106;2022-08-03T15:14:31;42.80;1.00
1011;DHT22;494;48.744;10.106;2022-08-03T15:17:03;42.60;1.20
1011;DHT22;494;48.744;10.106;2022-08-03T15:19:32;42.40;1.60
1011;DHT22;494;48.744;10.106;2022-08-03T15:22:21;42.30;1.20
1011;DHT22;494;48.744;10.106;2022-08-03T15:25:01;42.40;1.00
1011;DHT22;494;48.744;10.106;2022-08-03T15:27:50;42.60;1.00
1011;DHT22;494;48.744;10.106;2022-08-03T15:30:30;42.60;1.00
1011;DHT22;494;48.744;10.106;2022-08-03T15:33:03;42.70;1.00
1011;DHT22;494;48.744;10.106;2022-08-03T15:35:31;42.30;1.00
1011;DHT22;494;48.744;10.106;2022-08-03T15:38:00;41.70;1.10
1011;DHT22;494;48.744;10.106;2022-08-03T15:40:36;41.10;1.80
1011;DHT22;494;48.744;10.106;2022-08-03T15:43:04;40.70;2.10
1011;DHT22;494;48.744;10.106;2022-08-03T15:45:33;40.40;2.90
1011;DHT22;494;48.744;10.106;2022-08-03T15:48:03;40.40;2.60
1011;DHT22;494;48.744;10.106;2022-08-03T15:50:32;40.30;3.40
1011;DHT22;494;48.744;10.106;2022-08-03T15:53:00;40.40;2.70
1011;DHT22;494;48.744;10.106;2022-08-03T15:55:29;40.40;2.90
1011;DHT22;494;48.744;10.106;2022-08-03T15:58:00;40.30;2.60
1011;DHT22;494;48.744;10.106;2022-08-03T16:00:48;40.30;2.80
1011;DHT22;494;48.744;10.106;2022-08-03T16:03:17;40.50;2.80
1011;DHT22;494;48.744;10.106;2022-08-03T16:05:45;40.50;2.50
1011;DHT22;494;48.744;10.106;2022-08-03T16:08:14;40.40;2.40
1011;DHT22;494;48.744;10.106;2022-08-03T16:10:42;40.50;2.40
1011;DHT22;494;48.744;10.106;2022-08-03T16:13:15;40.70;2.40
1011;DHT22;494;48.744;10.106;2022-08-03T16:15:44;41.00;2.50
1011;DHT22;494;48.744;10.106;2022-08-03T16:18:12;41.20;2.70
1011;DHT22;494;48.744;10.106;2022-08-03T16:20:41;41.10;2.30
1011;DHT22;494;48.744;10.106;2022-08-03T16:23:11;40.70;2.50
1011;DHT22;494;48.744;10.106;2022-08-03T16:25:42;40.40;2.60
1011;DHT22;494;48.744;10.106;2022-08-03T16:28:17;40.00;3.10
1011;DHT22;494;48.744;10.106;2022-08-03T16:30:46;39.80;3.20
1011;DHT22;494;48.744;10.106;2022-08-03T16:33:15;39.50;3.40
1011;DHT22;494;48.744;10.106;2022-08-03T16:35:44;39.40;3.50
1011;DHT22;494;48.744;10.106;2022-08-03T16:38:16;39.20;3.50
1011;DHT22;494;48.744;10.106;2022-08-03T16:40:45;39.10;4.10
1011;DHT22;494;48.744;10.106;2022-08-03T16:43:20;39.00;4.00
1011;DHT22;494;48.744;10.106;2022-08-03T16:45:51;38.80;3.70
1011;DHT22;494;48.744;10.106;2022-08-03T16:48:20;38.80;3.30
1011;DHT22;494;48.744;10.106;2022-08-03T16:50:48;38.80;3.50